Time;durP1;ratioP1;P1;durP2;ratioP2;P2;SDS_P1;SDS_P2;PMS_P1;PMS_P2;Temp;Humidity;BMP_temperature;BMP_pressure;BME280_temperature;BME280_humidity;BME280_pressure;Samples;Min_cycle;Max_cycle;Signal;HPM_P1;HPM_P2
2023/04/25 00:00:13;;;;;;;;;;;;;;;;;;5057905;28;20365;-62
2023/04/25 00:02:38;;;;;;;;;;;;;;;;;;5058301;28;19928;-63
2023/04/25 00:05:04;;;;;;;;;;;;;;;;;;5061417;28;19978;-63
2023/04/25 00:07:31;;;;;;;;;;;;;;;;;;5060350;28;19916;-63
2023/04/25 00:09:56;;;;;;;;;;;;;;;;;;5059893;28;19969;-63
2023/04/25 00:12:22;;;;;;;;;;;;;;;;;;5061250;28;19916;-62
2023/04/25 00:14:49;;;;;;;;;;;;;;;;;;5060802;28;19923;-63
2023/04/25 00:17:14;;;;;;;;;;;;;;;;;;5060514;28;19994;-62
2023/04/25 00:19:40;;;;;;;;;;;;;;;;;;5061726;28;20358;-62
2023/04/25 00:22:05;;;;;;;;;;;;;;;;;;5060200;28;20450;-63
2023/04/25 00:24:30;;;;;;;;;;;;;;;;;;5060275;28;20570;-63
2023/04/25 00:26:56;;;;;;;;;;;;;;;;;;5060088;28;19989;-64
2023/04/25 00:29:21;;;;;;;;;;;;;;;;;;5059830;28;19974;-63
2023/04/25 00:31:47;;;;;;;;;;;;;;;;;;5060043;28;19921;-63
2023/04/25 00:34:12;;;;;;;;;;;;;;;;;;5060513;28;20330;-62
2023/04/25 00:36:38;;;;;;;;;;;;;;;;;;5058690;28;19917;-64
2023/04/25 00:39:04;;;;;;;;;;;;;;;;;;5059881;28;20364;-63
2023/04/25 00:41:30;;;;;;;;;;;;;;;;;;5059801;28;19921;-62
2023/04/25 00:43:55;;;;;;;;;;;;;;;;;;5059552;28;20620;-62
2023/04/25 00:46:20;;;;;;;;;;;;;;;;;;5059904;28;20015;-61
2023/04/25 00:48:46;;;;;;;;;;;;;;;;;;5058707;28;19920;-62
2023/04/25 00:51:14;;;;;;;;;;;;;;;;;;5059352;28;19960;-63
2023/04/25 00:53:39;;;;;;;;;;;;;;;;;;5058014;28;19936;-62
2023/04/25 00:56:05;;;;;;;;;;;;;;;;;;5058845;28;19912;-63
2023/04/25 00:58:31;;;;;;;;;;;;;;;;;;5056582;28;19916;-63
2023/04/25 01:00:57;;;;;;;;;;;;;;;;;;5058821;28;20027;-61
2023/04/25 01:03:23;;;;;;;;;;;;;;;;;;5057781;28;19917;-62
2023/04/25 01:05:49;;;;;;;;;;;;;;;;;;5059271;28;20383;-62
2023/04/25 01:08:14;;;;;;;;;;;;;;;;;;5060601;28;19943;-61
2023/04/25 01:10:40;;;;;;;;;;;;;;;;;;5059765;28;20442;-62
2023/04/25 01:13:05;;;;;;;;;;;;;;;;;;5057428;28;20386;-62
2023/04/25 01:15:30;;;;;;;;;;;;;;;;;;5057666;28;20322;-62
2023/04/25 01:17:56;;;;;;;;;;;;;;;;;;5059778;28;20339;-63
2023/04/25 01:20:22;;;;;;;;;;;;;;;;;;5059239;28;19912;-63
2023/04/25 01:22:47;;;;;;;;;;;;;;;;;;5060354;28;20395;-62
2023/04/25 01:25:15;;;;;;;;;;;;;;;;;;5059354;28;19917;-62
2023/04/25 01:27:40;;;;;;;;;;;;;;;;;;5059840;28;20363;-62
2023/04/25 01:30:06;;;;;;;;;;;;;;;;;;5060883;28;19986;-62
2023/04/25 01:32:38;;;;;;;;;;;;;;;;;;5060910;28;19916;-62
2023/04/25 01:35:03;;;;;;;;;;;;;;;;;;5058121;28;19944;-62
2023/04/25 01:37:28;;;;;;;;;;;;;;;;;;5059251;28;20386;-62
2023/04/25 01:39:53;;;;;;;;;;;;;;;;;;5058925;28;20379;-61
2023/04/25 01:42:19;;;;;;;;;;;;;;;;;;5059967;28;20459;-62
2023/04/25 01:44:45;;;;;;;;;;;;;;;;;;5059370;28;19953;-62
2023/04/25 01:47:11;;;;;;;;;;;;;;;;;;5058561;28;19977;-61
2023/04/25 01:49:36;;;;;;;;;;;;;;;;;;5057544;28;19974;-62
2023/04/25 01:52:01;;;;;;;;;;;;;;;;;;5058498;28;19924;-62
2023/04/25 01:54:27;;;;;;;;;;;;;;;;;;5058477;28;19969;-61
2023/04/25 01:56:53;;;;;;;;;;;;;;;;;;5056116;28;19916;-61
2023/04/25 01:59:21;;;;;;;;;;;;;;;;;;5057898;28;20117;-61
2023/04/25 02:01:58;;;;;;;;;;;;;;;;;;5058207;28;19936;-61
2023/04/25 02:04:29;;;;;;;;;;;;;;;;;;5057240;28;19916;-61
2023/04/25 02:06:54;;;;;;;;;;;;;;;;;;5057015;28;19912;-61
2023/04/25 02:09:20;;;;;;;;;;;;;;;;;;5059238;28;20015;-61
2023/04/25 02:11:51;;;;;;;;;;;;;;;;;;5061837;28;20481;-61
2023/04/25 02:14:42;;;;;;;;;;;;;;;;;;5059044;28;19916;-62
2023/04/25 02:17:15;;;;;;;;;;;;;;;;;;5059686;28;20414;-61
2023/04/25 02:19:42;;;;;;;;;;;;;;;;;;5059590;28;19958;-62
2023/04/25 02:22:07;;;;;;;;;;;;;;;;;;5058347;28;19928;-61
2023/04/25 02:24:33;;;;;;;;;;;;;;;;;;5044210;28;20261;-62
2023/04/25 02:26:59;;;;;;;;;;;;;;;;;;5040506;28;19920;-62
2023/04/25 02:29:24;;;;;;;;;;;;;;;;;;5058438;28;19917;-64
2023/04/25 02:31:49;;;;;;;;;;;;;;;;;;5058540;28;20649;-63
2023/04/25 02:34:16;;;;;;;;;;;;;;;;;;5042761;28;20015;-62
2023/04/25 02:36:41;;;;;;;;;;;;;;;;;;5057345;28;19941;-61
2023/04/25 02:39:06;;;;;;;;;;;;;;;;;;5040330;28;19965;-62
2023/04/25 02:41:32;;;;;;;;;;;;;;;;;;5056633;28;20070;-62
2023/04/25 02:43:57;;;;;;;;;;;;;;;;;;5055744;28;19996;-62
2023/04/25 02:46:22;;;;;;;;;;;;;;;;;;5057920;28;19995;-62
2023/04/25 02:48:48;;;;;;;;;;;;;;;;;;5059316;28;19986;-63
2023/04/25 02:51:16;;;;;;;;;;;;;;;;;;5048943;28;19924;-62
2023/04/25 02:53:41;;;;;;;;;;;;;;;;;;5094774;27;19916;-62
2023/04/25 02:56:06;;;;;;;;;;;;;;;;;;5061842;28;20548;-62
2023/04/25 02:58:31;;;;;;;;;;;;;;;;;;5060512;28;20084;-62
2023/04/25 03:00:57;;;;;;;;;;;;;;;;;;5061189;28;19928;-63
2023/04/25 03:03:22;;;;;;;;;;;;;;;;;;5076784;28;19982;-61
2023/04/25 03:05:48;;;;;;;;;;;;;;;;;;5062820;28;19916;-61
2023/04/25 03:08:16;;;;;;;;;;;;;;;;;;5060119;28;20089;-61
2023/04/25 03:10:42;;;;;;;;;;;;;;;;;;5077287;28;20627;-61
2023/04/25 03:13:08;;;;;;;;;;;;;;;;;;5076016;28;19940;-61
2023/04/25 03:15:34;;;;;;;;;;;;;;;;;;5058941;28;20529;-61
2023/04/25 03:17:59;;;;;;;;;;;;;;;;;;5060678;28;19916;-61
2023/04/25 03:20:25;;;;;;;;;;;;;;;;;;5061908;28;19922;-61
2023/04/25 03:22:51;;;;;;;;;;;;;;;;;;5062563;28;20057;-60
2023/04/25 03:25:17;;;;;;;;;;;;;;;;;;5061841;28;19921;-60
2023/04/25 03:27:42;;;;;;;;;;;;;;;;;;5063176;28;20279;-60
2023/04/25 03:30:08;;;;;;;;;;;;;;;;;;5063081;28;19927;-60
2023/04/25 03:32:34;;;;;;;;;;;;;;;;;;5061161;28;20482;-61
2023/04/25 03:34:59;;;;;;;;;;;;;;;;;;5051776;28;19920;-60
2023/04/25 03:37:26;;;;;;;;;;;;;;;;;;5059815;28;19923;-61
2023/04/25 03:39:51;;;;;;;;;;;;;;;;;;5060439;28;19916;-61
2023/04/25 03:42:17;;;;;;;;;;;;;;;;;;5095145;27;20613;-61
2023/04/25 03:44:43;;;;;;;;;;;;;;;;;;5091212;27;19916;-61
2023/04/25 03:47:09;;;;;;;;;;;;;;;;;;5058879;28;20472;-61
2023/04/25 03:49:34;;;;;;;;;;;;;;;;;;5061286;28;19916;-61
2023/04/25 03:52:01;;;;;;;;;;;;;;;;;;5060832;28;19920;-60
2023/04/25 03:54:29;;;;;;;;;;;;;;;;;;5059339;28;20481;-60
2023/04/25 03:57:15;;;;;;;;;;;;;;;;;;5059845;28;19916;-61
2023/04/25 03:59:43;;;;;;;;;;;;;;;;;;5060616;28;19923;-61
2023/04/25 04:02:11;;;;;;;;;;;;;;;;;;5059405;28;19929;-61
2023/04/25 04:04:39;;;;;;;;;;;;;;;;;;5057462;28;20007;-61
2023/04/25 04:07:05;;;;;;;;;;;;;;;;;;5059206;28;20419;-61
2023/04/25 04:09:33;;;;;;;;;;;;;;;;;;5059844;28;20021;-61
2023/04/25 04:12:02;;;;;;;;;;;;;;;;;;5060406;28;19917;-62
2023/04/25 04:14:32;;;;;;;;;;;;;;;;;;5059558;28;20666;-62
2023/04/25 04:16:58;;;;;;;;;;;;;;;;;;5045630;28;19916;-61
2023/04/25 04:19:24;;;;;;;;;;;;;;;;;;5058141;28;19923;-61
2023/04/25 04:21:57;;;;;;;;;;;;;;;;;;5060774;28;19989;-61
2023/04/25 04:24:23;;;;;;;;;;;;;;;;;;5060265;28;19916;-64
2023/04/25 04:26:57;;;;;;;;;;;;;;;;;;5058054;28;19978;-62
2023/04/25 04:29:29;;;;;;;;;;;;;;;;;;5049638;28;20368;-63
2023/04/25 04:32:03;;;;;;;;;;;;;;;;;;5091402;27;20773;-63
2023/04/25 04:34:30;;;;;;;;;;;;;;;;;;5059910;28;19916;-64
2023/04/25 04:36:56;;;;;;;;;;;;;;;;;;5059390;28;20019;-66
2023/04/25 04:39:22;;;;;;;;;;;;;;;;;;5060284;28;20304;-63
2023/04/25 04:42:08;;;;;;;;;;;;;;;;;;5060695;28;20574;-64
2023/04/25 04:44:54;;;;;;;;;;;;;;;;;;5075954;28;19916;-64
2023/04/25 04:47:31;;;;;;;;;;;;;;;;;;5057696;28;19917;-64
2023/04/25 04:50:18;;;;;;;;;;;;;;;;;;5059479;28;20521;-64
2023/04/25 04:53:06;;;;;;;;;;;;;;;;;;5048850;28;19920;-64
2023/04/25 04:55:43;;;;;;;;;;;;;;;;;;5059729;28;20011;-66
2023/04/25 04:58:48;;;;;;;;;;;;;;;;;;5077307;28;19920;-65
2023/04/25 05:01:35;;;;;;;;;;;;;;;;;;5060550;28;20357;-64
2023/04/25 05:04:14;;;;;;;;;;;;;;;;;;5059167;28;19916;-67
2023/04/25 05:07:04;;;;;;;;;;;;;;;;;;5074889;28;20410;-65
2023/04/25 05:09:44;;;;;;;;;;;;;;;;;;5060884;28;20339;-59
2023/04/25 05:12:10;;;;;;;;;;;;;;;;;;5074966;28;19923;-60
2023/04/25 05:14:35;;;;;;;;;;;;;;;;;;5073213;28;20052;-60
2023/04/25 05:17:24;;;;;;;;;;;;;;;;;;5001920;28;19917;-60
2023/04/25 05:20:18;;;;;;;;;;;;;;;;;;4987615;28;19928;-61
2023/04/25 05:23:04;;;;;;;;;;;;;;;;;;5000619;28;20051;-60
2023/04/25 05:25:48;;;;;;;;;;;;;;;;;;5002626;28;20076;-60
2023/04/25 05:28:32;;;;;;;;;;;;;;;;;;5002664;28;20355;-60
2023/04/25 05:31:10;;;;;;;;;;;;;;;;;;4993220;28;20007;-61
2023/04/25 05:33:46;;;;;;;;;;;;;;;;;;5009473;28;19917;-60
2023/04/25 05:36:12;;;;;;;;;;;;;;;;;;5008295;28;20300;-61
2023/04/25 05:38:37;;;;;;;;;;;;;;;;;;4973099;28;20115;-61
2023/04/25 05:41:15;;;;;;;;;;;;;;;;;;4993485;28;20593;-62
2023/04/25 05:43:48;;;;;;;;;;;;;;;;;;4976849;28;20550;-69
2023/04/25 05:46:40;;;;;;;;;;;;;;;;;;4981308;28;19948;-63
2023/04/25 05:49:34;;;;;;;;;;;;;;;;;;4993920;28;20331;-62
2023/04/25 05:52:32;;;;;;;;;;;;;;;;;;4986137;28;20015;-61
2023/04/25 05:55:06;;;;;;;;;;;;;;;;;;5040768;28;19927;-61
2023/04/25 05:57:31;;;;;;;;;;;;;;;;;;5060438;28;19916;-60
2023/04/25 06:00:00;;;;;;;;;;;;;;;;;;5061811;28;20360;-63
2023/04/25 06:02:38;;;;;;;;;;;;;;;;;;5063560;28;19963;-62
2023/04/25 06:05:03;;;;;;;;;;;;;;;;;;5064474;28;20015;-61
2023/04/25 06:07:29;;;;;;;;;;;;;;;;;;5061201;28;19963;-62
2023/04/25 06:09:55;;;;;;;;;;;;;;;;;;5065248;28;19917;-63
2023/04/25 06:12:20;;;;;;;;;;;;;;;;;;5049083;28;19923;-61
2023/04/25 06:14:46;;;;;;;;;;;;;;;;;;5049938;28;19990;-62
2023/04/25 06:17:13;;;;;;;;;;;;;;;;;;5051781;28;19916;-62
2023/04/25 06:19:38;;;;;;;;;;;;;;;;;;5064248;28;20236;-64
2023/04/25 06:22:03;;;;;;;;;;;;;;;;;;5063608;28;19925;-62
2023/04/25 06:24:32;;;;;;;;;;;;;;;;;;5061375;28;19921;-62
2023/04/25 06:26:57;;;;;;;;;;;;;;;;;;5061392;28;19927;-62
2023/04/25 06:29:22;;;;;;;;;;;;;;;;;;5051297;28;19916;-62
2023/04/25 06:31:47;;;;;;;;;;;;;;;;;;5065132;28;20110;-62
2023/04/25 06:34:13;;;;;;;;;;;;;;;;;;5063855;28;19965;-63
2023/04/25 06:36:41;;;;;;;;;;;;;;;;;;5063985;28;19916;-62
2023/04/25 06:39:08;;;;;;;;;;;;;;;;;;5045458;28;19959;-63
2023/04/25 06:41:35;;;;;;;;;;;;;;;;;;5063574;28;19928;-63
2023/04/25 06:44:04;;;;;;;;;;;;;;;;;;5045140;28;19984;-63
2023/04/25 06:46:48;;;;;;;;;;;;;;;;;;5061006;28;19920;-61
2023/04/25 06:49:14;;;;;;;;;;;;;;;;;;5059165;28;19924;-62
2023/04/25 06:51:40;;;;;;;;;;;;;;;;;;5064045;28;19917;-62
2023/04/25 06:54:05;;;;;;;;;;;;;;;;;;5059654;28;20253;-62
2023/04/25 06:56:40;;;;;;;;;;;;;;;;;;5095329;27;19923;-62
2023/04/25 06:59:12;;;;;;;;;;;;;;;;;;5061161;28;19916;-63
2023/04/25 07:01:40;;;;;;;;;;;;;;;;;;5062152;28;20007;-62
2023/04/25 07:04:10;;;;;;;;;;;;;;;;;;5066369;28;20002;-62
2023/04/25 07:06:42;;;;;;;;;;;;;;;;;;5060111;28;19970;-62
2023/04/25 07:09:08;;;;;;;;;;;;;;;;;;5060946;28;20187;-62
2023/04/25 07:11:33;;;;;;;;;;;;;;;;;;5061504;28;20249;-62
2023/04/25 07:14:02;;;;;;;;;;;;;;;;;;5062313;28;20061;-62
2023/04/25 07:16:28;;;;;;;;;;;;;;;;;;5064798;28;20298;-63
2023/04/25 07:18:54;;;;;;;;;;;;;;;;;;5060337;28;20387;-63
2023/04/25 07:21:19;;;;;;;;;;;;;;;;;;5059666;28;19931;-64
2023/04/25 07:23:46;;;;;;;;;;;;;;;;;;5060410;28;20423;-61
2023/04/25 07:26:15;;;;;;;;;;;;;;;;;;5060900;28;20215;-63
2023/04/25 07:29:02;;;;;;;;;;;;;;;;;;5063379;28;19943;-61
2023/04/25 07:31:27;;;;;;;;;;;;;;;;;;5061474;28;19947;-62
2023/04/25 07:33:52;;;;;;;;;;;;;;;;;;5060614;28;20442;-62
2023/04/25 07:36:17;;;;;;;;;;;;;;;;;;5058091;28;19946;-61
2023/04/25 07:38:44;;;;;;;;;;;;;;;;;;5061230;28;19964;-60
2023/04/25 07:41:09;;;;;;;;;;;;;;;;;;5060581;28;20073;-62
2023/04/25 07:43:38;;;;;;;;;;;;;;;;;;5059775;28;19917;-63
2023/04/25 07:46:03;;;;;;;;;;;;;;;;;;5049040;28;20375;-60
2023/04/25 07:48:34;;;;;;;;;;;;;;;;;;5061349;28;20019;-61
2023/04/25 07:51:01;;;;;;;;;;;;;;;;;;5059587;28;19916;-62
2023/04/25 07:53:26;;;;;;;;;;;;;;;;;;5062477;28;19921;-64
2023/04/25 07:55:56;;;;;;;;;;;;;;;;;;5093895;27;19993;-64
2023/04/25 07:58:22;;;;;;;;;;;;;;;;;;5062698;28;20405;-62
2023/04/25 08:00:50;;;;;;;;;;;;;;;;;;5093607;27;19981;-62
2023/04/25 08:03:41;;;;;;;;;;;;;;;;;;5062482;28;19921;-62
2023/04/25 08:06:15;;;;;;;;;;;;;;;;;;5050681;28;20251;-62
2023/04/25 08:08:48;;;;;;;;;;;;;;;;;;5045945;28;19917;-61
2023/04/25 08:11:16;;;;;;;;;;;;;;;;;;5061377;28;19920;-62
2023/04/25 08:13:42;;;;;;;;;;;;;;;;;;5061563;28;19916;-62
2023/04/25 08:16:07;;;;;;;;;;;;;;;;;;5058682;28;19920;-62
2023/04/25 08:18:33;;;;;;;;;;;;;;;;;;5059750;28;19923;-62
2023/04/25 08:20:59;;;;;;;;;;;;;;;;;;5076385;28;20659;-62
2023/04/25 08:23:25;;;;;;;;;;;;;;;;;;5061542;28;19928;-61
2023/04/25 08:25:52;;;;;;;;;;;;;;;;;;5060810;28;20002;-62
2023/04/25 08:28:21;;;;;;;;;;;;;;;;;;5061167;28;20431;-61
2023/04/25 08:30:48;;;;;;;;;;;;;;;;;;5061995;28;19928;-62
2023/04/25 08:33:15;;;;;;;;;;;;;;;;;;5058061;28;19925;-62
2023/04/25 08:35:43;;;;;;;;;;;;;;;;;;5062263;28;19921;-61
2023/04/25 08:38:08;;;;;;;;;;;;;;;;;;5061441;28;20420;-63
2023/04/25 08:40:34;;;;;;;;;;;;;;;;;;5077482;28;19916;-64
2023/04/25 08:43:03;;;;;;;;;;;;;;;;;;5061620;28;20586;-63
2023/04/25 08:45:28;;;;;;;;;;;;;;;;;;5062281;28;19973;-66
2023/04/25 08:47:54;;;;;;;;;;;;;;;;;;5061733;28;19916;-64
2023/04/25 08:50:22;;;;;;;;;;;;;;;;;;5075786;28;19927;-65
2023/04/25 08:52:47;;;;;;;;;;;;;;;;;;5057942;28;19931;-64
2023/04/25 08:55:14;;;;;;;;;;;;;;;;;;5059256;28;19961;-63
2023/04/25 08:57:39;;;;;;;;;;;;;;;;;;5061131;28;19917;-66
2023/04/25 09:00:05;;;;;;;;;;;;;;;;;;5062116;28;19955;-64
2023/04/25 09:02:34;;;;;;;;;;;;;;;;;;5061709;28;19969;-64
2023/04/25 09:05:00;;;;;;;;;;;;;;;;;;5094136;28;19923;-64
2023/04/25 09:07:26;;;;;;;;;;;;;;;;;;5061718;28;20200;-68
2023/04/25 09:09:56;;;;;;;;;;;;;;;;;;5075516;28;19916;-64
2023/04/25 09:12:21;;;;;;;;;;;;;;;;;;5050313;28;19923;-64
2023/04/25 09:14:47;;;;;;;;;;;;;;;;;;5060645;28;19920;-64
2023/04/25 09:17:28;;;;;;;;;;;;;;;;;;5050858;28;19964;-64
2023/04/25 09:19:56;;;;;;;;;;;;;;;;;;5064761;28;20011;-64
2023/04/25 09:22:25;;;;;;;;;;;;;;;;;;5067041;28;20015;-63
2023/04/25 09:24:51;;;;;;;;;;;;;;;;;;5064995;28;19976;-62
2023/04/25 09:27:17;;;;;;;;;;;;;;;;;;5061654;28;20295;-62
2023/04/25 09:29:43;;;;;;;;;;;;;;;;;;5055179;28;19916;-63
2023/04/25 09:32:09;;;;;;;;;;;;;;;;;;5064497;28;19950;-63
2023/04/25 09:34:34;;;;;;;;;;;;;;;;;;5064763;28;20317;-64
2023/04/25 09:37:10;;;;;;;;;;;;;;;;;;5065105;28;20346;-63
2023/04/25 09:39:54;;;;;;;;;;;;;;;;;;5064406;28;19994;-63
2023/04/25 09:42:19;;;;;;;;;;;;;;;;;;5064117;28;19987;-64
2023/04/25 09:44:45;;;;;;;;;;;;;;;;;;5063032;28;19911;-63
2023/04/25 09:47:11;;;;;;;;;;;;;;;;;;5063925;28;20775;-63
2023/04/25 09:49:36;;;;;;;;;;;;;;;;;;5045370;28;20383;-62
2023/04/25 09:52:08;;;;;;;;;;;;;;;;;;5059954;28;19956;-62
2023/04/25 09:54:43;;;;;;;;;;;;;;;;;;5062016;28;19924;-67
2023/04/25 09:57:12;;;;;;;;;;;;;;;;;;5058843;28;19917;-64
2023/04/25 09:59:38;;;;;;;;;;;;;;;;;;5063724;28;20570;-64
2023/04/25 10:02:03;;;;;;;;;;;;;;;;;;5062548;28;20450;-63
2023/04/25 10:04:34;;;;;;;;;;;;;;;;;;5059953;28;19962;-65
2023/04/25 10:07:05;;;;;;;;;;;;;;;;;;5061631;28;19916;-64
2023/04/25 10:09:33;;;;;;;;;;;;;;;;;;5063317;28;19928;-64
2023/04/25 10:11:58;;;;;;;;;;;;;;;;;;5080657;28;19962;-63
2023/04/25 10:14:24;;;;;;;;;;;;;;;;;;5064691;28;20363;-63
2023/04/25 10:16:55;;;;;;;;;;;;;;;;;;5064000;28;19920;-63
2023/04/25 10:19:20;;;;;;;;;;;;;;;;;;5065787;28;19916;-63
2023/04/25 10:21:45;;;;;;;;;;;;;;;;;;5061992;28;19925;-63
2023/04/25 10:24:13;;;;;;;;;;;;;;;;;;5063920;28;20322;-63
2023/04/25 10:26:39;;;;;;;;;;;;;;;;;;5063417;28;20838;-63
2023/04/25 10:29:05;;;;;;;;;;;;;;;;;;5061712;28;20329;-62
2023/04/25 10:31:30;;;;;;;;;;;;;;;;;;5053401;28;19963;-66
2023/04/25 10:33:56;;;;;;;;;;;;;;;;;;5062949;28;19917;-65
2023/04/25 10:36:22;;;;;;;;;;;;;;;;;;5063152;28;20183;-65
2023/04/25 10:38:47;;;;;;;;;;;;;;;;;;5063017;28;20005;-65
2023/04/25 10:41:13;;;;;;;;;;;;;;;;;;5062171;28;19978;-65
2023/04/25 10:43:38;;;;;;;;;;;;;;;;;;5059652;28;20461;-66
2023/04/25 10:46:05;;;;;;;;;;;;;;;;;;5062925;28;20362;-63
2023/04/25 10:48:30;;;;;;;;;;;;;;;;;;5062579;28;20061;-65
2023/04/25 10:50:55;;;;;;;;;;;;;;;;;;5061773;28;19916;-65
2023/04/25 10:53:21;;;;;;;;;;;;;;;;;;5065281;28;20324;-66
2023/04/25 10:55:46;;;;;;;;;;;;;;;;;;5062283;28;19917;-67
2023/04/25 10:58:12;;;;;;;;;;;;;;;;;;5060568;28;20252;-65
2023/04/25 11:00:40;;;;;;;;;;;;;;;;;;5059767;28;20271;-69
2023/04/25 11:03:05;;;;;;;;;;;;;;;;;;5059471;28;20455;-69
2023/04/25 11:05:30;;;;;;;;;;;;;;;;;;5059773;28;19939;-69
2023/04/25 11:07:59;;;;;;;;;;;;;;;;;;5062105;28;20253;-68
2023/04/25 11:10:24;;;;;;;;;;;;;;;;;;5062885;28;20278;-69
2023/04/25 11:12:50;;;;;;;;;;;;;;;;;;5062623;28;19917;-68
2023/04/25 11:15:15;;;;;;;;;;;;;;;;;;5064097;28;19916;-68
2023/04/25 11:17:41;;;;;;;;;;;;;;;;;;5062347;28;19917;-69
2023/04/25 11:20:08;;;;;;;;;;;;;;;;;;5063401;28;19921;-66
2023/04/25 11:22:34;;;;;;;;;;;;;;;;;;5061917;28;19946;-67
2023/04/25 11:24:59;;;;;;;;;;;;;;;;;;5058450;28;20320;-64
2023/04/25 11:27:24;;;;;;;;;;;;;;;;;;5057199;28;19924;-66
2023/04/25 11:29:50;;;;;;;;;;;;;;;;;;5061632;28;19921;-66
2023/04/25 11:32:15;;;;;;;;;;;;;;;;;;5063220;28;20387;-65
2023/04/25 11:34:41;;;;;;;;;;;;;;;;;;5076877;28;20001;-65
2023/04/25 11:37:06;;;;;;;;;;;;;;;;;;5062960;28;19920;-66
2023/04/25 11:39:31;;;;;;;;;;;;;;;;;;5058249;28;19920;-66
2023/04/25 11:41:57;;;;;;;;;;;;;;;;;;5048924;28;19928;-65
2023/04/25 11:44:22;;;;;;;;;;;;;;;;;;5062100;28;20068;-64
2023/04/25 11:46:47;;;;;;;;;;;;;;;;;;5060306;28;19955;-69
2023/04/25 11:49:13;;;;;;;;;;;;;;;;;;5059926;28;19917;-68
2023/04/25 11:51:38;;;;;;;;;;;;;;;;;;5058821;28;20356;-67
2023/04/25 11:54:03;;;;;;;;;;;;;;;;;;5058888;28;19917;-68
2023/04/25 11:56:29;;;;;;;;;;;;;;;;;;5051123;28;19963;-69
2023/04/25 11:58:55;;;;;;;;;;;;;;;;;;5053175;28;19920;-68
2023/04/25 12:01:20;;;;;;;;;;;;;;;;;;5048145;28;20307;-68
2023/04/25 12:03:45;;;;;;;;;;;;;;;;;;5058378;28;20011;-67
2023/04/25 12:06:11;;;;;;;;;;;;;;;;;;5059578;28;19951;-66
2023/04/25 12:08:36;;;;;;;;;;;;;;;;;;5059042;28;19949;-67
2023/04/25 12:11:02;;;;;;;;;;;;;;;;;;5062583;28;19916;-67
2023/04/25 12:13:28;;;;;;;;;;;;;;;;;;5059137;28;20062;-69
2023/04/25 12:15:53;;;;;;;;;;;;;;;;;;5062679;28;20487;-68
2023/04/25 12:18:21;;;;;;;;;;;;;;;;;;5057752;28;20545;-68
2023/04/25 12:20:46;;;;;;;;;;;;;;;;;;5059625;28;19932;-67
2023/04/25 12:23:14;;;;;;;;;;;;;;;;;;5062584;28;19924;-68
2023/04/25 12:25:39;;;;;;;;;;;;;;;;;;5063920;28;19923;-67
2023/04/25 12:28:05;;;;;;;;;;;;;;;;;;5062179;28;19916;-67
2023/04/25 12:30:30;;;;;;;;;;;;;;;;;;5061811;28;19928;-67
2023/04/25 12:32:56;;;;;;;;;;;;;;;;;;5062440;28;19967;-68
2023/04/25 12:35:21;;;;;;;;;;;;;;;;;;5062601;28;19916;-68
2023/04/25 12:37:46;;;;;;;;;;;;;;;;;;5059789;28;20233;-67
2023/04/25 12:40:12;;;;;;;;;;;;;;;;;;5060466;28;19917;-68
2023/04/25 12:42:37;;;;;;;;;;;;;;;;;;5062740;28;19997;-68
2023/04/25 12:45:02;;;;;;;;;;;;;;;;;;5061112;28;20298;-68
2023/04/25 12:47:28;;;;;;;;;;;;;;;;;;5062316;28;19942;-68
2023/04/25 12:49:53;;;;;;;;;;;;;;;;;;5061443;28;20003;-68
2023/04/25 12:52:18;;;;;;;;;;;;;;;;;;5061373;28;20325;-68
2023/04/25 12:54:43;;;;;;;;;;;;;;;;;;5060847;28;19963;-68
2023/04/25 12:57:09;;;;;;;;;;;;;;;;;;5061734;28;20362;-67
2023/04/25 12:59:34;;;;;;;;;;;;;;;;;;5061533;28;19989;-68
2023/04/25 13:02:00;;;;;;;;;;;;;;;;;;5062260;28;20023;-67
2023/04/25 13:04:42;;;;;;;;;;;;;;;;;;5107848;27;20026;-67
2023/04/25 13:07:07;;;;;;;;;;;;;;;;;;5101051;28;20014;-67
2023/04/25 13:09:33;;;;;;;;;;;;;;;;;;5095402;28;19963;-67
2023/04/25 13:11:58;;;;;;;;;;;;;;;;;;5095755;28;20490;-66
2023/04/25 13:14:24;;;;;;;;;;;;;;;;;;5099662;28;20293;-67
2023/04/25 13:16:49;;;;;;;;;;;;;;;;;;5097300;28;19962;-68
2023/04/25 13:19:14;;;;;;;;;;;;;;;;;;5084008;28;19916;-66
2023/04/25 13:21:40;;;;;;;;;;;;;;;;;;5099318;28;20485;-67
2023/04/25 13:24:05;;;;;;;;;;;;;;;;;;5096821;28;20351;-70
2023/04/25 13:26:31;;;;;;;;;;;;;;;;;;5100261;28;19920;-65
2023/04/25 13:28:57;;;;;;;;;;;;;;;;;;5082749;28;19923;-65
2023/04/25 13:31:22;;;;;;;;;;;;;;;;;;5095053;28;19973;-65
2023/04/25 13:33:47;;;;;;;;;;;;;;;;;;5095224;28;19927;-64
2023/04/25 13:36:13;;;;;;;;;;;;;;;;;;5097243;28;19998;-65
2023/04/25 13:38:39;;;;;;;;;;;;;;;;;;5094044;28;20018;-64
2023/04/25 13:41:06;;;;;;;;;;;;;;;;;;5094127;28;19930;-61
2023/04/25 13:43:32;;;;;;;;;;;;;;;;;;5066266;28;19931;-65
2023/04/25 13:45:57;;;;;;;;;;;;;;;;;;5092417;28;20282;-66
2023/04/25 13:48:25;;;;;;;;;;;;;;;;;;5094171;28;20425;-65
2023/04/25 13:50:51;;;;;;;;;;;;;;;;;;5096345;28;20178;-65
2023/04/25 13:53:16;;;;;;;;;;;;;;;;;;5095168;28;20468;-64
2023/04/25 13:55:41;;;;;;;;;;;;;;;;;;5092975;28;19919;-65
2023/04/25 13:58:07;;;;;;;;;;;;;;;;;;5093863;28;19916;-65
2023/04/25 14:00:33;;;;;;;;;;;;;;;;;;5090835;28;20026;-66
2023/04/25 14:02:58;;;;;;;;;;;;;;;;;;5077020;28;19928;-66
2023/04/25 14:05:24;;;;;;;;;;;;;;;;;;5079168;28;20312;-63
2023/04/25 14:07:52;;;;;;;;;;;;;;;;;;5082651;28;19916;-65
2023/04/25 14:10:17;;;;;;;;;;;;;;;;;;5073214;28;20443;-65
2023/04/25 14:12:42;;;;;;;;;;;;;;;;;;5082207;28;19948;-65
2023/04/25 14:15:08;;;;;;;;;;;;;;;;;;5065486;28;19969;-67
2023/04/25 14:17:34;;;;;;;;;;;;;;;;;;5065660;28;19916;-65
2023/04/25 14:19:59;;;;;;;;;;;;;;;;;;5071034;28;19947;-66
2023/04/25 14:22:25;;;;;;;;;;;;;;;;;;5071092;28;19923;-66
2023/04/25 14:24:51;;;;;;;;;;;;;;;;;;5070656;28;19916;-61
2023/04/25 14:27:16;;;;;;;;;;;;;;;;;;5071164;28;19916;-68
2023/04/25 14:29:41;;;;;;;;;;;;;;;;;;5069974;28;19944;-61
2023/04/25 14:32:07;;;;;;;;;;;;;;;;;;5046788;28;20089;-64
2023/04/25 14:34:32;;;;;;;;;;;;;;;;;;5043329;28;19928;-63
2023/04/25 14:36:58;;;;;;;;;;;;;;;;;;5069050;28;19923;-63
2023/04/25 14:39:23;;;;;;;;;;;;;;;;;;5060346;28;20547;-64
2023/04/25 14:41:49;;;;;;;;;;;;;;;;;;5067967;28;19920;-63
2023/04/25 14:44:15;;;;;;;;;;;;;;;;;;5067165;28;20210;-63
2023/04/25 14:46:40;;;;;;;;;;;;;;;;;;5070464;28;20013;-64
2023/04/25 14:49:06;;;;;;;;;;;;;;;;;;5048248;28;19920;-63
2023/04/25 14:51:31;;;;;;;;;;;;;;;;;;5069899;28;20283;-61
2023/04/25 14:53:56;;;;;;;;;;;;;;;;;;5069863;28;19916;-63
2023/04/25 14:56:22;;;;;;;;;;;;;;;;;;5068744;28;20009;-64
2023/04/25 14:58:48;;;;;;;;;;;;;;;;;;5069595;28;20332;-61
2023/04/25 15:01:13;;;;;;;;;;;;;;;;;;5067744;28;19912;-63
2023/04/25 15:03:38;;;;;;;;;;;;;;;;;;5075572;28;19928;-65
2023/04/25 15:06:04;;;;;;;;;;;;;;;;;;5082912;28;19950;-63
2023/04/25 15:08:29;;;;;;;;;;;;;;;;;;5082222;28;20350;-63
2023/04/25 15:10:54;;;;;;;;;;;;;;;;;;5078959;28;19920;-64
2023/04/25 15:13:20;;;;;;;;;;;;;;;;;;5080649;28;20228;-61
2023/04/25 15:15:50;;;;;;;;;;;;;;;;;;5068113;28;19917;-60
2023/04/25 15:18:16;;;;;;;;;;;;;;;;;;5082104;28;19916;-60
2023/04/25 15:20:42;;;;;;;;;;;;;;;;;;5079877;28;20010;-60
2023/04/25 15:23:07;;;;;;;;;;;;;;;;;;5081223;28;20270;-62
2023/04/25 15:25:32;;;;;;;;;;;;;;;;;;5079775;28;19922;-61
2023/04/25 15:27:58;;;;;;;;;;;;;;;;;;5078721;28;20031;-61
2023/04/25 15:30:23;;;;;;;;;;;;;;;;;;5082787;28;20429;-63
2023/04/25 15:32:49;;;;;;;;;;;;;;;;;;5080147;28;21260;-61
2023/04/25 15:35:15;;;;;;;;;;;;;;;;;;5082277;28;19941;-60
2023/04/25 15:37:40;;;;;;;;;;;;;;;;;;5083649;28;20375;-61
2023/04/25 15:40:14;;;;;;;;;;;;;;;;;;5081051;28;20065;-61
2023/04/25 15:42:39;;;;;;;;;;;;;;;;;;5082073;28;20438;-60
2023/04/25 15:45:05;;;;;;;;;;;;;;;;;;5082602;28;19916;-62
2023/04/25 15:47:30;;;;;;;;;;;;;;;;;;5082572;28;20262;-63
2023/04/25 15:49:55;;;;;;;;;;;;;;;;;;5080638;28;19916;-60
2023/04/25 15:52:21;;;;;;;;;;;;;;;;;;5063917;28;20384;-61
2023/04/25 15:54:46;;;;;;;;;;;;;;;;;;5079201;28;20296;-61
2023/04/25 15:57:12;;;;;;;;;;;;;;;;;;5080089;28;20519;-60
2023/04/25 15:59:38;;;;;;;;;;;;;;;;;;5080764;28;19969;-60
2023/04/25 16:02:04;;;;;;;;;;;;;;;;;;5079317;28;20010;-61
2023/04/25 16:04:34;;;;;;;;;;;;;;;;;;5078840;28;20436;-60
2023/04/25 16:06:59;;;;;;;;;;;;;;;;;;5083966;28;20350;-60
2023/04/25 16:09:25;;;;;;;;;;;;;;;;;;5079931;28;19916;-60
2023/04/25 16:11:50;;;;;;;;;;;;;;;;;;5079662;28;20008;-60
2023/04/25 16:14:15;;;;;;;;;;;;;;;;;;5081096;28;20363;-61
2023/04/25 16:16:43;;;;;;;;;;;;;;;;;;5081192;28;20499;-60
2023/04/25 16:19:14;;;;;;;;;;;;;;;;;;5079880;28;19916;-64
2023/04/25 16:21:40;;;;;;;;;;;;;;;;;;5080177;28;19932;-63
2023/04/25 16:24:06;;;;;;;;;;;;;;;;;;5080723;28;20055;-61
2023/04/25 16:26:31;;;;;;;;;;;;;;;;;;5079597;28;20360;-62
2023/04/25 16:28:57;;;;;;;;;;;;;;;;;;5081915;28;19989;-61
2023/04/25 16:31:22;;;;;;;;;;;;;;;;;;5080468;28;20472;-61
2023/04/25 16:33:47;;;;;;;;;;;;;;;;;;5080449;28;20012;-59
2023/04/25 16:36:13;;;;;;;;;;;;;;;;;;5079019;28;19916;-62
2023/04/25 16:38:41;;;;;;;;;;;;;;;;;;5082831;28;19920;-62
2023/04/25 16:41:06;;;;;;;;;;;;;;;;;;5082418;28;19916;-62
2023/04/25 16:43:31;;;;;;;;;;;;;;;;;;5082177;28;19928;-61
2023/04/25 16:45:57;;;;;;;;;;;;;;;;;;5078010;28;19937;-61
2023/04/25 16:48:23;;;;;;;;;;;;;;;;;;5079116;28;19924;-62